Time;durP1;ratioP1;P1;durP2;ratioP2;P2;SDS_P1;SDS_P2;PMS_P1;PMS_P2;Temp;Humidity;BMP_temperature;BMP_pressure;BME280_temperature;BME280_humidity;BME280_pressure;Samples;Min_cycle;Max_cycle;Signal;HPM_P1;HPM_P2
2021/10/19 00:02:15;;;;;;;;;;;;;;;7.13;92.53;100889.19;4990973;28;20528;-62
2021/10/19 00:05:00;;;;;;;16.30;9.70;;;;;;;7.18;92.96;100889.69;4991702;28;20314;-62
2021/10/19 00:07:46;;;;;;;23.58;11.73;;;;;;;7.30;91.73;100902.19;4978494;28;20507;-60
2021/10/19 00:10:31;;;;;;;18.75;11.48;;;;;;;7.36;91.40;100894.72;4976929;28;20109;-63
2021/10/19 00:13:16;;;;;;;22.40;10.80;;;;;;;7.44;90.72;100897.69;4980583;28;20116;-64
2021/10/19 00:16:02;;;;;;;17.73;9.80;;;;;;;7.49;90.64;100888.41;4992152;28;20061;-63
2021/10/19 00:18:47;;;;;;;19.25;9.52;;;;;;;7.60;89.91;100893.00;4990793;28;20523;-63
2021/10/19 00:21:32;;;;;;;20.77;11.60;;;;;;;7.60;89.61;100895.66;4982203;28;20109;-63
2021/10/19 00:24:17;;;;;;;20.55;10.55;;;;;;;7.83;87.77;100880.66;4991446;28;20057;-65
2021/10/19 00:27:04;;;;;;;17.02;9.77;;;;;;;7.84;87.49;100879.69;4991159;28;20073;-63
2021/10/19 00:29:49;;;;;;;14.38;9.13;;;;;;;7.85;87.53;100882.25;4990784;28;20049;-64
2021/10/19 00:32:35;;;;;;;17.30;9.63;;;;;;;7.84;87.49;100867.19;4992419;28;20432;-64
2021/10/19 00:35:21;;;;;;;18.15;9.85;;;;;;;7.82;87.37;100863.78;4992016;28;20065;-64
2021/10/19 00:38:06;;;;;;;17.27;9.35;;;;;;;7.76;88.17;100863.34;4989147;28;20058;-64
2021/10/19 00:40:51;;;;;;;20.02;10.05;;;;;;;7.70;88.40;100855.78;4984032;28;20057;-64
2021/10/19 00:43:36;;;;;;;16.63;9.57;;;;;;;7.71;88.21;100853.00;4990288;28;20421;-62
2021/10/19 00:46:21;;;;;;;18.58;9.07;;;;;;;7.66;88.76;100855.13;4981459;28;20137;-63
2021/10/19 00:49:07;;;;;;;15.55;9.75;;;;;;;7.62;89.33;100859.00;4980781;28;20128;-58
2021/10/19 00:51:53;;;;;;;;;;;;;;;7.62;89.12;100857.19;4992136;28;20061;-63
2021/10/19 00:54:38;;;;;;;20.27;9.65;;;;;;;7.64;89.03;100857.06;4984454;28;20020;-64
2021/10/19 00:57:23;;;;;;;20.60;11.40;;;;;;;7.63;89.30;100855.38;4989550;28;20057;-63
2021/10/19 01:00:10;;;;;;;25.02;11.85;;;;;;;7.64;89.03;100854.41;4980589;28;20058;-63
2021/10/19 01:02:55;;;;;;;23.17;11.93;;;;;;;7.76;88.55;100845.50;4982757;28;20404;-62
2021/10/19 01:05:41;;;;;;;21.83;11.77;;;;;;;7.70;89.21;100839.75;4986371;28;20409;-64
2021/10/19 01:08:27;;;;;;;27.20;12.65;;;;;;;7.73;88.64;100837.72;4991625;28;20052;-67
2021/10/19 01:11:12;;;;;;;23.63;12.18;;;;;;;7.73;88.86;100829.69;4991764;28;20128;-63
2021/10/19 01:13:57;;;;;;;23.60;13.20;;;;;;;7.77;87.79;100823.16;4995650;28;20184;-67
2021/10/19 01:16:42;;;;;;;28.55;13.40;;;;;;;7.86;87.38;100811.78;4982483;28;20072;-64
2021/10/19 01:19:27;;;;;;;21.73;12.07;;;;;;;7.89;87.39;100816.91;4982455;28;20057;-63
2021/10/19 01:22:14;;;;;;;25.55;13.15;;;;;;;7.85;87.63;100820.78;4985133;28;20419;-61
2021/10/19 01:24:59;;;;;;;;;;;;;;;7.80;88.11;100830.94;4989895;28;20201;-63
2021/10/19 01:27:49;;;;;;;25.00;12.38;;;;;;;7.94;87.04;100842.47;4990545;28;20390;-64
2021/10/19 01:30:40;;;;;;;26.73;12.90;;;;;;;7.97;86.74;100856.44;4981400;28;20472;-65
2021/10/19 01:33:25;;;;;;;24.30;12.30;;;;;;;7.93;86.70;100838.91;4985414;28;20053;-64
2021/10/19 01:36:12;;;;;;;23.58;11.55;;;;;;;8.04;85.85;100819.41;4981702;28;20054;-65
2021/10/19 01:38:58;;;;;;;24.17;11.95;;;;;;;8.04;85.85;100806.03;4978694;28;20058;-64
2021/10/19 01:41:45;;;;;;;22.17;10.73;;;;;;;7.91;86.65;100831.00;4982459;28;20109;-64
2021/10/19 01:44:34;;;;;;;23.15;11.80;;;;;;;7.87;87.09;100845.56;4989565;28;20600;-62
2021/10/19 01:47:19;;;;;;;23.40;12.50;;;;;;;7.82;87.08;100839.72;4978896;28;20061;-65
2021/10/19 01:50:04;;;;;;;21.10;10.95;;;;;;;7.84;86.63;100840.47;4990311;28;20053;-64
2021/10/19 01:52:49;;;;;;;21.63;11.45;;;;;;;7.88;86.65;100839.25;4990536;28;20057;-66
2021/10/19 01:55:38;;;;;;;21.65;11.38;;;;;;;7.88;86.50;100825.91;4990563;28;20053;-64
2021/10/19 01:58:24;;;;;;;22.45;11.98;;;;;;;7.97;86.23;100839.56;4991081;28;20428;-64
2021/10/19 02:01:09;;;;;;;21.02;11.05;;;;;;;8.02;85.10;100826.69;4989579;28;20049;-64
2021/10/19 02:03:54;;;;;;;19.92;11.70;;;;;;;7.88;86.07;100817.88;4994570;28;20132;-66
2021/10/19 02:06:39;;;;;;;22.60;12.52;;;;;;;7.69;86.86;100828.19;4982950;28;20072;-64
2021/10/19 02:09:24;;;;;;;22.08;12.50;;;;;;;7.82;86.07;100815.66;4982024;28;20045;-63
2021/10/19 02:12:11;;;;;;;25.92;13.15;;;;;;;7.81;85.83;100805.94;4987511;28;20210;-61
2021/10/19 02:14:56;;;;;;;21.38;11.30;;;;;;;7.60;87.17;100804.84;4987710;28;20073;-63
2021/10/19 02:17:42;;;;;;;24.10;12.70;;;;;;;7.74;86.65;100791.31;4991059;28;20080;-63
2021/10/19 02:20:27;;;;;;;24.88;13.35;;;;;;;7.55;87.75;100793.63;4976913;28;20107;-63
2021/10/19 02:23:12;;;;;;;25.92;13.77;;;;;;;7.62;87.04;100794.88;4991284;28;20555;-64
2021/10/19 02:25:58;;;;;;;21.63;11.73;;;;;;;7.55;87.20;100796.28;4989758;28;20062;-64
2021/10/19 02:28:44;;;;;;;25.10;12.43;;;;;;;7.68;86.63;100778.41;4982596;28;20065;-62
2021/10/19 02:31:29;;;;;;;20.33;11.70;;;;;;;7.59;86.95;100784.44;4988701;28;20120;-61
2021/10/19 02:34:16;;;;;;;25.88;14.02;;;;;;;7.47;87.67;100790.66;4986220;28;20063;-61
2021/10/19 02:37:00;;;;;;;23.33;12.52;;;;;;;7.31;88.20;100783.75;4977373;28;20177;-65
2021/10/19 02:39:45;;;;;;;26.40;14.20;;;;;;;7.25;89.12;100780.69;4981270;28;20096;-65
2021/10/19 02:42:30;;;;;;;27.17;13.88;;;;;;;7.25;88.83;100781.53;4983206;28;20068;-64
2021/10/19 02:45:17;;;;;;;27.98;13.82;;;;;;;7.41;87.74;100775.06;4984597;28;20057;-65
2021/10/19 02:48:02;;;;;;;24.05;12.52;;;;;;;7.43;87.85;100789.16;4983473;28;20064;-64
2021/10/19 02:50:47;;;;;;;26.52;13.15;;;;;;;7.33;88.31;100789.81;4982665;28;20132;-62
2021/10/19 02:53:32;;;;;;;24.08;12.15;;;;;;;7.30;88.59;100791.88;4971269;28;20053;-64
2021/10/19 02:56:17;;;;;;;29.80;12.70;;;;;;;7.36;88.43;100791.44;4988717;28;20081;-63
2021/10/19 02:59:03;;;;;;;28.00;14.30;;;;;;;7.33;88.62;100795.16;4982460;28;20046;-65
2021/10/19 03:01:49;;;;;;;26.83;13.30;;;;;;;7.38;88.35;100794.84;4978954;28;20060;-66
2021/10/19 03:04:34;;;;;;;;;;;;;;;7.42;87.87;100800.81;4985749;28;20324;-65
2021/10/19 03:07:19;;;;;;;21.60;12.45;;;;;;;7.61;86.71;100801.19;4983717;28;20061;-64
2021/10/19 03:10:06;;;;;;;25.42;12.40;;;;;;;7.71;86.55;100793.38;4985622;28;20105;-64
2021/10/19 03:12:51;;;;;;;25.08;11.55;;;;;;;7.66;86.89;100788.34;4990195;28;20120;-65
2021/10/19 03:15:36;;;;;;;22.23;11.57;;;;;;;7.64;87.21;100798.28;4974155;28;20568;-65
2021/10/19 03:18:22;;;;;;;27.95;13.52;;;;;;;7.79;86.81;100796.31;4980137;28;20053;-64
2021/10/19 03:21:07;;;;;;;25.80;12.75;;;;;;;7.79;86.12;100807.00;4981160;28;20247;-65
2021/10/19 03:23:52;;;;;;;25.13;13.20;;;;;;;7.72;86.87;100805.75;4995566;28;20077;-64
2021/10/19 03:26:37;;;;;;;25.58;12.68;;;;;;;7.81;86.15;100795.25;4989956;28;20077;-64
2021/10/19 03:29:23;;;;;;;22.48;11.82;;;;;;;7.81;86.33;100789.91;4995734;28;20531;-65
2021/10/19 03:32:08;;;;;;;27.85;14.13;;;;;;;7.82;86.24;100778.25;4988682;28;20186;-63
2021/10/19 03:34:54;;;;;;;23.75;13.18;;;;;;;7.87;85.78;100784.09;4990631;28;20061;-62
2021/10/19 03:40:16;;;;;;;21.30;11.68;;;;;;;8.11;84.59;100781.41;4985274;28;20096;-62
2021/10/19 03:43:01;;;;;;;22.13;12.32;;;;;;;8.05;84.65;100779.22;4990027;28;20081;-62
2021/10/19 03:45:46;;;;;;;26.13;13.30;;;;;;;8.00;85.31;100781.38;4984481;28;20096;-62
2021/10/19 03:48:31;;;;;;;23.98;12.05;;;;;;;7.90;85.99;100772.31;4974661;28;20073;-63
2021/10/19 03:51:18;;;;;;;21.67;11.15;;;;;;;7.91;85.47;100772.19;4976522;28;20116;-63
2021/10/19 03:54:03;;;;;;;22.48;11.85;;;;;;;7.83;86.43;100760.41;4975836;28;20113;-63
2021/10/19 03:56:48;;;;;;;20.92;11.60;;;;;;;7.82;86.31;100748.00;4969480;28;20061;-62
2021/10/19 03:59:33;;;;;;;23.08;11.60;;;;;;;7.77;87.05;100759.03;4975512;28;20181;-60
2021/10/19 04:02:18;;;;;;;24.52;12.32;;;;;;;7.83;86.54;100760.41;4973615;28;20515;-64
2021/10/19 04:05:03;;;;;;;22.02;11.95;;;;;;;7.96;85.57;100766.53;4969597;28;20140;-62
2021/10/19 04:07:50;;;;;;;22.60;12.33;;;;;;;7.92;85.76;100765.03;4975220;28;20054;-63
2021/10/19 04:10:35;;;;;;;22.98;12.60;;;;;;;7.87;86.43;100761.88;4974400;28;20062;-62
2021/10/19 04:13:20;;;;;;;27.08;12.05;;;;;;;7.76;87.82;100768.00;4977232;28;20152;-64
2021/10/19 04:16:06;;;;;;;25.60;13.43;;;;;;;7.74;87.70;100772.63;4971134;28;20049;-63
2021/10/19 04:18:51;;;;;;;24.75;12.55;;;;;;;7.77;87.50;100782.22;4976786;28;20185;-61
2021/10/19 04:21:35;;;;;;;28.73;12.88;;;;;;;7.73;87.60;100784.28;4967885;28;20053;-61
2021/10/19 04:24:22;;;;;;;27.10;13.23;;;;;;;7.80;87.11;100766.81;4976119;28;20061;-63
2021/10/19 04:27:07;;;;;;;27.92;13.20;;;;;;;7.83;86.94;100760.41;4971979;28;20117;-63
2021/10/19 04:29:52;;;;;;;26.90;13.48;;;;;;;7.83;86.91;100755.91;4970542;28;20065;-63
2021/10/19 04:32:37;;;;;;;24.83;11.93;;;;;;;7.84;86.99;100762.97;4974747;28;20077;-62
2021/10/19 04:35:22;;;;;;;28.38;13.88;;;;;;;7.84;87.17;100751.41;4971941;28;20066;-64
2021/10/19 04:38:07;;;;;;;24.85;13.65;;;;;;;7.84;87.01;100748.75;4970307;28;20062;-63
2021/10/19 04:40:53;;;;;;;23.55;12.60;;;;;;;7.94;86.63;100757.78;4973291;28;20069;-63
2021/10/19 04:43:39;;;;;;;26.00;12.90;;;;;;;7.89;87.05;100766.13;4966772;28;20536;-63
2021/10/19 04:46:24;;;;;;;26.45;13.27;;;;;;;7.99;86.11;100757.44;4971999;28;20519;-64
2021/10/19 04:49:09;;;;;;;23.67;12.80;;;;;;;8.04;85.75;100763.25;4971315;28;20409;-63
2021/10/19 04:51:53;;;;;;;25.85;13.20;;;;;;;8.00;86.01;100770.66;4968106;28;20061;-62
2021/10/19 04:54:38;;;;;;;25.30;14.57;;;;;;;8.14;85.08;100764.28;4971485;28;20545;-63
2021/10/19 04:57:25;;;;;;;24.90;12.98;;;;;;;8.03;85.90;100767.75;4972141;28;20101;-63
2021/10/19 05:00:10;;;;;;;25.48;12.98;;;;;;;8.02;85.88;100765.22;4971813;28;20413;-63
2021/10/19 05:02:57;;;;;;;26.48;13.02;;;;;;;8.07;85.62;100768.41;4969858;28;20062;-63
2021/10/19 05:05:43;;;;;;;25.80;13.75;;;;;;;8.05;85.54;100771.19;4964587;28;20058;-62
2021/10/19 05:08:28;;;;;;;26.02;13.00;;;;;;;8.04;85.89;100763.25;4969315;28;20057;-63
2021/10/19 05:11:13;;;;;;;25.92;12.55;;;;;;;8.17;84.56;100753.38;4971401;28;20321;-63
2021/10/19 05:13:59;;;;;;;23.58;12.18;;;;;;;8.04;85.70;100748.06;4972193;28;20076;-63
2021/10/19 05:16:45;;;;;;;23.13;12.48;;;;;;;8.26;84.41;100751.81;4967297;28;20057;-63
2021/10/19 05:19:30;;;;;;;23.42;12.13;;;;;;;8.10;86.12;100752.97;4966209;28;20409;-62
2021/10/19 05:22:14;;;;;;;25.30;12.05;;;;;;;8.09;86.03;100742.41;4971461;28;20424;-63
2021/10/19 05:24:59;;;;;;;22.80;11.85;;;;;;;8.07;85.89;100730.97;4972653;28;20421;-62
2021/10/19 05:27:46;;;;;;;22.70;12.88;;;;;;;8.07;85.80;100736.31;4967327;28;20062;-63
2021/10/19 05:30:32;;;;;;;;;;;;;;;8.09;85.80;100735.22;4969756;28;20050;-63
2021/10/19 05:33:17;;;;;;;25.10;12.70;;;;;;;8.27;84.90;100750.84;4965155;28;20496;-63
2021/10/19 05:36:02;;;;;;;27.83;14.88;;;;;;;8.13;85.66;100747.38;4965418;28;20070;-62
2021/10/19 05:38:48;;;;;;;28.95;13.80;;;;;;;8.17;85.54;100748.03;4972328;28;20065;-65
2021/10/19 05:41:33;;;;;;;29.48;13.95;;;;;;;8.23;84.90;100750.22;4965576;28;20114;-64
2021/10/19 05:44:18;;;;;;;25.40;12.18;;;;;;;8.33;84.84;100745.03;4971565;28;20058;-64
2021/10/19 05:47:05;;;;;;;25.15;12.75;;;;;;;8.45;83.93;100747.66;4970969;28;20113;-63
2021/10/19 05:49:49;;;;;;;;;;;;;;;8.34;85.05;100749.41;4965544;28;20045;-63
2021/10/19 05:52:34;;;;;;;26.52;13.00;;;;;;;8.40;84.35;100747.13;4971364;28;19929;-64
2021/10/19 05:55:20;;;;;;;24.88;13.23;;;;;;;8.59;83.18;100741.22;4972419;28;20057;-64
2021/10/19 05:58:05;;;;;;;27.77;12.70;;;;;;;8.60;83.26;100739.41;4965165;28;20137;-66
2021/10/19 06:00:50;;;;;;;27.42;13.77;;;;;;;8.68;82.71;100739.66;4968802;28;20049;-64
2021/10/19 06:03:36;;;;;;;28.23;13.40;;;;;;;8.69;83.08;100746.72;4971081;28;20062;-65
2021/10/19 06:06:22;;;;;;;24.35;12.45;;;;;;;8.74;82.60;100753.41;4971570;28;20065;-63
2021/10/19 06:09:07;;;;;;;25.50;12.77;;;;;;;8.71;82.95;100742.94;4964587;28;20193;-64
2021/10/19 06:11:54;;;;;;;27.33;13.05;;;;;;;8.82;82.75;100744.78;4971478;28;20532;-64
2021/10/19 06:14:39;;;;;;;27.83;13.13;;;;;;;8.76;82.97;100747.91;4971093;28;20054;-63
2021/10/19 06:17:24;;;;;;;22.85;12.68;;;;;;;8.90;82.16;100752.22;4966911;28;20053;-62
2021/10/19 06:20:12;;;;;;;24.20;12.95;;;;;;;8.82;82.77;100750.13;4969670;28;20069;-64
2021/10/19 06:22:57;;;;;;;22.13;11.50;;;;;;;8.77;82.99;100737.13;4969209;28;20062;-63
2021/10/19 06:25:42;;;;;;;27.65;11.93;;;;;;;8.84;82.85;100745.50;4971281;28;20157;-62
2021/10/19 06:28:27;;;;;;;24.30;12.48;;;;;;;8.91;82.22;100744.06;4970826;28;20132;-63
2021/10/19 06:31:12;;;;;;;20.17;12.05;;;;;;;8.86;82.66;100737.34;4964017;28;20069;-62
2021/10/19 06:33:57;;;;;;;26.70;12.60;;;;;;;9.01;81.59;100730.78;4955909;28;20058;-62
2021/10/19 06:36:44;;;;;;;22.40;12.07;;;;;;;9.06;81.54;100721.41;4969169;28;20061;-62
2021/10/19 06:39:29;;;;;;;24.23;10.90;;;;;;;9.21;81.24;100734.53;4970659;28;20123;-62
2021/10/19 06:42:14;;;;;;;26.95;14.85;;;;;;;9.11;81.75;100730.88;4966591;28;20245;-61
2021/10/19 06:45:00;;;;;;;23.52;12.60;;;;;;;9.35;81.10;100728.91;4967874;28;20058;-61
2021/10/19 06:47:45;;;;;;;19.48;11.90;;;;;;;9.42;80.97;100742.66;4969669;28;20527;-62
2021/10/19 06:50:30;;;;;;;21.58;12.00;;;;;;;9.41;79.98;100727.56;4969556;28;20085;-60
2021/10/19 06:53:18;;;;;;;21.65;11.98;;;;;;;9.45;80.59;100729.03;4968602;28;20062;-62
2021/10/19 06:56:03;;;;;;;22.63;12.23;;;;;;;9.58;80.38;100725.22;4969674;28;20432;-61
2021/10/19 06:58:48;;;;;;;21.52;11.00;;;;;;;9.71;80.94;100718.84;4962541;28;20182;-63
2021/10/19 07:01:34;;;;;;;24.60;12.07;;;;;;;9.76;80.09;100722.00;4966624;28;20065;-63
2021/10/19 07:04:19;;;;;;;23.13;12.80;;;;;;;9.79;78.97;100719.06;4969547;28;20062;-63
2021/10/19 07:07:04;;;;;;;21.30;11.35;;;;;;;10.01;77.99;100718.13;4961007;28;20416;-63
2021/10/19 07:09:50;;;;;;;20.87;11.70;;;;;;;9.98;78.67;100724.59;4970070;28;20054;-62
2021/10/19 07:12:36;;;;;;;28.45;13.18;;;;;;;10.00;78.73;100724.47;4969491;28;20062;-63
2021/10/19 07:15:22;;;;;;;22.98;11.77;;;;;;;10.02;78.71;100727.88;4968057;28;20105;-63
2021/10/19 07:18:08;;;;;;;22.50;11.73;;;;;;;10.05;79.08;100723.09;4968998;28;20057;-60
2021/10/19 07:20:54;;;;;;;21.45;10.95;;;;;;;10.11;78.73;100719.91;4960210;28;20617;-62
2021/10/19 07:23:39;;;;;;;22.52;11.43;;;;;;;10.17;79.00;100726.56;4967767;28;20057;-63
2021/10/19 07:26:26;;;;;;;23.83;11.88;;;;;;;10.06;78.44;100724.78;4967666;28;20061;-62
2021/10/19 07:29:11;;;;;;;26.38;11.27;;;;;;;10.07;78.90;100717.63;4967556;28;20050;-58
2021/10/19 07:31:56;;;;;;;23.67;10.33;;;;;;;10.21;79.30;100720.84;4964987;28;20065;-64
2021/10/19 07:34:42;;;;;;;23.13;12.35;;;;;;;10.25;77.90;100716.91;4968852;28;20204;-62
2021/10/19 07:37:27;;;;;;;23.75;11.55;;;;;;;10.12;79.28;100721.59;4968049;28;20369;-64
2021/10/19 07:40:14;;;;;;;20.60;12.05;;;;;;;10.37;78.19;100724.91;4969075;28;20053;-62
2021/10/19 07:43:00;;;;;;;24.88;11.57;;;;;;;10.34;78.75;100725.19;4963259;28;20173;-62
2021/10/19 07:45:46;;;;;;;23.55;11.75;;;;;;;10.32;79.00;100735.19;4968879;28;20519;-61
2021/10/19 07:48:31;;;;;;;20.58;10.90;;;;;;;10.49;77.95;100739.97;4968710;28;20061;-62
2021/10/19 07:51:16;;;;;;;19.27;10.90;;;;;;;10.74;76.25;100728.78;4969912;28;20511;-61
2021/10/19 07:54:01;;;;;;;18.08;10.73;;;;;;;10.71;76.42;100731.75;4967689;28;20524;-59
2021/10/19 07:56:46;;;;;;;20.23;10.90;;;;;;;10.73;78.02;100740.53;4973745;28;20054;-62
2021/10/19 07:59:32;;;;;;;21.25;10.75;;;;;;;10.98;76.68;100736.53;4970539;28;20077;-61
2021/10/19 08:02:17;;;;;;;21.67;10.88;;;;;;;11.41;73.72;100725.53;4966558;28;20532;-62
2021/10/19 08:05:03;;;;;;;19.40;10.70;;;;;;;11.54;74.50;100724.41;4964035;28;20058;-63
2021/10/19 08:07:49;;;;;;;18.90;10.65;;;;;;;11.80;73.38;100714.00;4978875;28;20081;-63
2021/10/19 08:10:35;;;;;;;21.10;10.57;;;;;;;11.97;72.08;100718.72;4974130;28;20058;-63
2021/10/19 08:13:20;;;;;;;16.02;9.45;;;;;;;12.36;72.19;100724.06;4973805;28;20054;-63
2021/10/19 08:16:07;;;;;;;18.73;10.85;;;;;;;12.37;70.64;100715.84;4994686;28;20069;-64
2021/10/19 08:18:52;;;;;;;25.67;12.98;;;;;;;12.15;70.27;100711.59;4994412;28;20103;-63
2021/10/19 08:21:38;;;;;;;18.15;10.32;;;;;;;12.72;70.27;100719.72;4993772;28;20527;-63
2021/10/19 08:24:23;;;;;;;20.67;10.80;;;;;;;12.71;70.07;100720.72;4994686;28;20065;-62
2021/10/19 08:27:08;;;;;;;18.63;11.00;;;;;;;12.95;69.50;100722.91;4994180;28;20527;-64
2021/10/19 08:29:54;;;;;;;22.65;11.93;;;;;;;13.28;67.53;100729.59;4994821;28;20138;-63
2021/10/19 08:32:42;;;;;;;16.63;9.70;;;;;;;13.77;66.83;100735.53;4994501;28;20499;-63
2021/10/19 08:35:27;;;;;;;16.88;10.00;;;;;;;13.62;67.38;100735.22;4973828;28;20061;-64
2021/10/19 08:38:13;;;;;;;22.60;10.43;;;;;;;13.94;66.76;100738.25;4975045;28;20104;-64
2021/10/19 08:40:59;;;;;;;14.65;8.38;;;;;;;13.65;67.33;100733.06;4974789;28;20066;-62
2021/10/19 08:43:45;;;;;;;19.10;10.27;;;;;;;13.31;68.42;100721.22;4975117;28;20065;-66
2021/10/19 08:46:30;;;;;;;;;;;;;;;13.49;67.45;100714.00;4974916;28;20057;-64
2021/10/19 08:49:16;;;;;;;18.40;9.13;;;;;;;13.57;67.41;100702.47;4974104;28;19933;-63
2021/10/19 08:52:01;;;;;;;;;;;;;;;13.53;68.07;100704.63;4975255;28;20053;-63
2021/10/19 08:54:46;;;;;;;16.67;9.05;;;;;;;13.60;66.22;100705.69;4974633;28;19928;-64
2021/10/19 08:57:31;;;;;;;17.17;8.88;;;;;;;13.48;67.92;100712.28;4973892;28;20058;-64
2021/10/19 09:00:17;;;;;;;15.15;9.05;;;;;;;13.69;66.79;100714.72;4974961;28;20141;-64
2021/10/19 09:03:04;;;;;;;15.85;8.32;;;;;;;13.54;66.35;100716.25;4974596;28;20138;-63
2021/10/19 09:05:51;;;;;;;15.70;9.40;;;;;;;13.63;65.96;100718.03;4973708;28;20113;-62
2021/10/19 09:08:36;;;;;;;;;;;;;;;13.79;65.39;100710.09;4975000;28;20062;-61
2021/10/19 09:11:21;;;;;;;15.45;8.35;;;;;;;14.27;64.74;100711.53;4974495;28;19930;-59
2021/10/19 09:14:06;;;;;;;16.63;8.48;;;;;;;14.34;64.77;100710.78;4974052;28;20065;-62
2021/10/19 09:16:53;;;;;;;16.75;9.73;;;;;;;14.76;62.51;100714.63;4974133;28;20061;-61
2021/10/19 09:19:39;;;;;;;16.17;10.10;;;;;;;14.66;62.45;100706.63;4974402;28;20138;-61
2021/10/19 09:22:25;;;;;;;16.13;7.90;;;;;;;14.96;61.21;100701.72;4974530;28;20524;-58
2021/10/19 09:25:10;;;;;;;;;;;;;;;15.47;62.17;100700.75;4974421;28;20125;-60
2021/10/19 09:27:56;;;;;;;18.70;8.02;;;;;;;15.78;59.14;100695.59;4971235;28;20300;-60
2021/10/19 09:30:43;;;;;;;;;;;;;;;15.71;60.66;100689.16;4970279;28;20412;-62
2021/10/19 09:33:28;;;;;;;13.77;7.22;;;;;;;15.44;60.73;100698.38;4971540;28;20390;-60
2021/10/19 09:36:13;;;;;;;18.58;8.10;;;;;;;15.94;58.93;100692.91;4965757;28;20182;-63
2021/10/19 09:41:44;;;;;;;13.55;8.30;;;;;;;15.74;61.30;100699.63;4976572;28;20043;-64
2021/10/19 09:44:29;;;;;;;13.68;7.97;;;;;;;15.73;60.02;100697.94;4983355;28;20185;-65
2021/10/19 09:47:14;;;;;;;15.75;8.20;;;;;;;15.13;60.31;100685.41;4966186;28;20065;-67
2021/10/19 09:49:59;;;;;;;12.98;8.27;;;;;;;15.18;61.10;100682.22;4959083;28;20054;-63
2021/10/19 09:52:44;;;;;;;14.10;8.18;;;;;;;15.00;61.16;100678.75;4964022;28;20163;-67
2021/10/19 09:55:32;;;;;;;13.52;8.43;;;;;;;14.64;62.61;100678.91;4991126;22;20519;-64
2021/10/19 09:58:19;;;;;;;11.93;7.40;;;;;;;14.87;61.93;100671.94;5001561;28;20176;-67
2021/10/19 10:01:10;;;;;;;11.57;7.32;;;;;;;14.43;62.76;100664.91;5005351;28;20407;-63
2021/10/19 10:03:56;;;;;;;11.80;7.18;;;;;;;14.95;63.91;100656.78;5009046;28;20515;-64
2021/10/19 10:06:42;;;;;;;15.80;7.10;;;;;;;15.19;62.28;100659.59;5023039;28;20064;-64
2021/10/19 10:09:28;;;;;;;12.75;8.02;;;;;;;15.40;62.79;100664.56;5008188;28;20180;-64
2021/10/19 10:12:13;;;;;;;11.50;7.13;;;;;;;15.50;61.72;100665.22;5008092;28;20064;-63
2021/10/19 10:14:59;;;;;;;11.70;7.55;;;;;;;15.42;62.05;100659.81;5008503;28;20116;-66
2021/10/19 10:17:49;;;;;;;12.05;7.50;;;;;;;15.27;61.79;100651.47;5008450;28;20415;-63
2021/10/19 10:20:37;;;;;;;15.02;8.43;;;;;;;15.06;62.34;100643.00;5009240;28;20518;-65
2021/10/19 10:23:24;;;;;;;10.98;6.78;;;;;;;15.27;63.01;100635.25;5008730;28;20062;-64
2021/10/19 10:26:21;;;;;;;12.80;7.32;;;;;;;15.09;63.51;100634.53;5008017;28;20064;-65
2021/10/19 10:29:08;;;;;;;14.27;8.82;;;;;;;15.07;62.49;100625.75;5008701;28;20057;-63
2021/10/19 10:31:54;;;;;;;10.35;6.80;;;;;;;15.51;61.66;100631.78;5015505;28;20060;-63
2021/10/19 10:34:40;;;;;;;13.48;6.82;;;;;;;15.77;60.91;100637.09;5010372;28;20410;-65
2021/10/19 10:37:36;;;;;;;13.18;7.35;;;;;;;15.84;60.51;100624.56;5007878;28;20123;-64
2021/10/19 10:40:29;;;;;;;12.88;6.90;;;;;;;16.00;61.22;100635.41;5007300;28;20057;-62
2021/10/19 10:43:23;;;;;;;10.00;5.68;;;;;;;16.38;60.61;100632.97;5026479;28;20559;-66
2021/10/19 10:46:11;;;;;;;10.50;6.57;;;;;;;16.15;60.73;100627.44;5026373;28;20061;-63
2021/10/19 10:48:58;;;;;;;10.75;5.93;;;;;;;16.54;59.77;100624.81;5020033;28;20096;-66
2021/10/19 10:51:44;;;;;;;7.93;5.15;;;;;;;16.81;60.41;100612.75;5010958;28;20061;-63
2021/10/19 10:54:29;;;;;;;11.43;6.00;;;;;;;16.62;59.72;100608.53;5029616;28;20063;-65
2021/10/19 10:57:14;;;;;;;9.77;5.90;;;;;;;17.05;57.79;100602.78;5029560;28;20188;-63
2021/10/19 11:00:03;;;;;;;9.65;5.63;;;;;;;17.51;57.94;100599.09;5030163;28;20056;-66
2021/10/19 11:02:48;;;;;;;8.40;5.25;;;;;;;18.00;57.73;100603.34;5030011;28;20443;-63
2021/10/19 11:05:36;;;;;;;10.32;6.40;;;;;;;17.67;55.76;100591.88;5027586;28;20059;-65
2021/10/19 11:08:22;;;;;;;7.75;4.95;;;;;;;17.83;57.87;100587.19;5023280;28;20055;-64
2021/10/19 11:11:10;;;;;;;11.60;6.60;;;;;;;17.47;56.23;100586.94;5026001;28;20049;-67
2021/10/19 11:13:58;;;;;;;11.80;6.32;;;;;;;17.56;57.01;100595.88;5021707;28;20076;-65
2021/10/19 11:16:45;;;;;;;8.18;4.47;;;;;;;17.94;56.39;100587.78;5026535;28;20514;-64
2021/10/19 11:19:34;;;;;;;8.27;5.30;;;;;;;17.96;57.54;100591.16;5025408;28;20060;-65
2021/10/19 11:22:21;;;;;;;8.48;5.45;;;;;;;17.61;56.68;100576.31;5023741;28;20060;-65
2021/10/19 11:25:06;;;;;;;9.88;6.38;;;;;;;17.44;56.63;100575.59;5021368;28;20058;-65
2021/10/19 11:27:52;;;;;;;7.50;4.85;;;;;;;17.48;57.86;100576.91;5025797;28;20072;-63
2021/10/19 11:30:38;;;;;;;8.43;5.38;;;;;;;17.45;57.33;100569.16;5023709;28;20053;-64
2021/10/19 11:33:23;;;;;;;8.43;4.50;;;;;;;17.53;57.24;100566.38;5023117;28;20107;-64
2021/10/19 11:36:08;;;;;;;8.60;5.40;;;;;;;17.36;57.69;100564.81;5016250;28;20061;-65
2021/10/19 11:38:56;;;;;;;;;;;;;;;17.23;58.52;100563.53;5025745;28;20180;-63
2021/10/19 11:41:45;;;;;;;6.88;4.40;;;;;;;17.45;58.49;100550.16;5025768;28;19928;-66
2021/10/19 11:44:30;;;;;;;8.30;5.13;;;;;;;17.65;57.43;100543.22;5022517;22;20581;-65
2021/10/19 11:47:15;;;;;;;9.27;4.90;;;;;;;17.71;57.83;100553.34;4982907;28;20140;-67
2021/10/19 11:50:00;;;;;;;8.97;4.63;;;;;;;17.87;58.26;100540.66;4992262;28;20057;-67
2021/10/19 11:52:46;;;;;;;7.68;4.90;;;;;;;17.53;57.13;100531.09;4987682;28;20440;-68
2021/10/19 11:55:34;;;;;;;7.68;4.07;;;;;;;17.91;58.17;100523.00;4991744;28;20102;-67
2021/10/19 11:58:22;;;;;;;8.02;5.13;;;;;;;17.66;57.76;100528.63;4984601;28;20054;-64
2021/10/19 12:01:13;;;;;;;6.93;4.40;;;;;;;18.30;56.11;100526.28;4981404;28;20093;-69
2021/10/19 12:04:00;;;;;;;6.35;4.40;;;;;;;18.33;55.40;100523.19;4989327;28;20124;-65
2021/10/19 12:06:47;;;;;;;8.35;5.13;;;;;;;17.84;56.06;100522.88;4987756;28;20176;-69
2021/10/19 12:09:32;;;;;;;10.23;4.75;;;;;;;17.65;56.40;100516.06;4988717;28;20058;-68
2021/10/19 12:12:25;;;;;;;7.32;4.22;;;;;;;18.19;55.85;100512.31;4991370;28;20067;-67
2021/10/19 12:15:10;;;;;;;5.72;3.92;;;;;;;18.11;55.79;100513.25;4989855;28;20148;-68
2021/10/19 12:17:57;;;;;;;7.10;4.22;;;;;;;18.05;55.67;100509.41;4990208;28;20109;-65
2021/10/19 12:20:43;;;;;;;6.20;4.28;;;;;;;17.92;58.13;100502.94;4989175;28;20741;-65
2021/10/19 12:23:28;;;;;;;10.18;4.68;;;;;;;17.89;57.03;100487.03;4988471;28;20066;-66
2021/10/19 12:26:13;;;;;;;5.93;4.03;;;;;;;18.33;56.36;100485.16;4989050;28;20061;-66
2021/10/19 12:29:05;;;;;;;7.75;4.45;;;;;;;17.37;57.41;100487.81;4983842;28;20152;-68
2021/10/19 12:31:50;;;;;;;7.07;4.53;;;;;;;17.60;57.07;100477.78;4987581;28;20053;-67
2021/10/19 12:34:37;;;;;;;8.10;4.70;;;;;;;17.50;57.75;100471.75;4989595;28;20065;-65
2021/10/19 12:37:22;;;;;;;9.02;5.43;;;;;;;17.64;56.74;100470.97;4986786;28;20057;-66
2021/10/19 12:40:13;;;;;;;6.50;4.37;;;;;;;17.29;58.60;100469.75;4989165;28;20057;-66
2021/10/19 12:42:58;;;;;;;6.60;4.30;;;;;;;17.51;57.27;100462.59;4982684;28;20066;-65
2021/10/19 12:45:44;;;;;;;8.20;4.75;;;;;;;17.62;56.97;100467.56;4988232;28;20073;-64
2021/10/19 12:48:33;;;;;;;7.57;3.97;;;;;;;17.75;58.22;100470.53;4989989;28;20077;-66
2021/10/19 12:51:19;;;;;;;7.75;4.25;;;;;;;17.43;58.02;100474.38;4983694;28;20153;-65
2021/10/19 12:54:07;;;;;;;6.07;3.78;;;;;;;17.92;56.63;100465.78;4990381;28;20073;-66